Time;durP1;ratioP1;P1;durP2;ratioP2;P2;SDS_P1;SDS_P2;PMS_P1;PMS_P2;Temp;Humidity;BMP_temperature;BMP_pressure;BME280_temperature;BME280_humidity;BME280_pressure;Samples;Min_cycle;Max_cycle;Signal;HPM_P1;HPM_P2
2022/09/05 00:01:36;;;;;;;9.50;2.10;;;16.90;98.00;;;;;;5051257;28;20442;-71
2022/09/05 00:04:13;;;;;;;2.10;1.83;;;16.80;98.00;;;;;;5050668;28;20481;-71
2022/09/05 00:06:47;;;;;;;3.63;2.03;;;16.60;98.00;;;;;;5051535;28;20454;-73
2022/09/05 00:09:24;;;;;;;2.20;1.70;;;16.70;98.00;;;;;;5051169;28;20829;-73
2022/09/05 00:12:00;;;;;;;2.70;1.90;;;16.50;98.00;;;;;;5051094;28;20465;-71
2022/09/05 00:14:49;;;;;;;1.70;1.50;;;16.50;98.00;;;;;;5051720;28;20457;-72
2022/09/05 00:17:26;;;;;;;4.37;2.00;;;16.60;98.00;;;;;;5051147;28;20462;-73
2022/09/05 00:20:06;;;;;;;2.50;1.80;;;16.40;98.00;;;;;;5051236;28;20453;-72
2022/09/05 00:22:42;;;;;;;2.90;1.90;;;16.20;98.00;;;;;;5051050;28;20465;-72
2022/09/05 00:25:41;;;;;;;2.47;1.70;;;16.00;98.00;;;;;;5051156;28;20880;-72
2022/09/05 00:28:18;;;;;;;6.60;2.10;;;15.90;98.00;;;;;;5050815;28;20458;-72
2022/09/05 00:31:07;;;;;;;2.83;2.03;;;15.80;98.00;;;;;;5050974;28;20456;-71
2022/09/05 00:33:44;;;;;;;3.63;2.23;;;15.80;98.00;;;;;;5050904;28;20940;-73
2022/09/05 00:36:22;;;;;;;3.50;1.90;;;15.90;98.00;;;;;;5050925;28;20813;-71
2022/09/05 00:38:57;;;;;;;1.93;1.83;;;16.10;98.00;;;;;;5051242;28;20860;-72
2022/09/05 00:41:27;;;;;;;1.97;1.60;;;16.20;98.00;;;;;;5051071;28;20468;-72
2022/09/05 00:43:56;;;;;;;3.20;1.77;;;16.00;98.00;;;;;;5050512;28;20496;-71
2022/09/05 00:46:27;;;;;;;3.27;1.93;;;15.90;98.00;;;;;;5050878;28;20890;-71
2022/09/05 00:49:02;;;;;;;2.57;1.67;;;15.90;98.00;;;;;;5050821;28;20466;-71
2022/09/05 00:51:35;;;;;;;2.00;1.77;;;15.90;98.00;;;;;;5051024;28;20461;-71
2022/09/05 00:54:29;;;;;;;2.40;2.00;;;15.90;98.00;;;;;;5033310;28;20446;-72
2022/09/05 00:57:18;;;;;;;2.30;1.97;;;15.90;98.00;;;;;;5014226;28;20767;-72
2022/09/05 01:00:06;;;;;;;2.40;1.60;;;15.90;98.00;;;;;;5033220;28;20461;-71
2022/09/05 01:02:53;;;;;;;5.83;2.10;;;15.80;98.00;;;;;;5050699;28;20464;-72
2022/09/05 01:05:35;;;;;;;2.07;1.67;;;15.90;98.00;;;;;;5050554;28;20821;-72
2022/09/05 01:08:18;;;;;;;2.00;1.60;;;15.90;98.00;;;;;;5050630;28;21052;-71
2022/09/05 01:10:53;;;;;;;1.73;1.60;;;16.00;98.00;;;;;;5050691;28;20814;-71
2022/09/05 01:13:35;;;;;;;2.63;1.57;;;16.10;98.00;;;;;;5051340;28;20461;-74
2022/09/05 01:16:09;;;;;;;1.87;1.53;;;16.00;98.00;;;;;;5036409;28;20476;-72
2022/09/05 01:18:47;;;;;;;2.30;1.80;;;15.90;98.00;;;;;;5054352;28;20453;-71
2022/09/05 01:21:52;;;;;;;4.57;2.33;;;15.80;98.00;;;;;;5054238;28;20457;-72
2022/09/05 01:24:37;;;;;;;2.00;1.63;;;15.80;98.00;;;;;;5047444;28;20535;-71
2022/09/05 01:27:41;;;;;;;2.87;2.00;;;15.80;98.00;;;;;;5054158;28;20465;-71
2022/09/05 01:30:13;;;;;;;2.13;1.63;;;15.60;98.00;;;;;;5054104;28;20959;-72
2022/09/05 01:32:50;;;;;;;3.20;1.97;;;15.60;98.00;;;;;;5054159;28;20456;-72
2022/09/05 01:35:43;;;;;;;3.13;2.03;;;15.60;98.00;;;;;;5054101;28;20945;-72
2022/09/05 01:38:20;;;;;;;2.47;1.63;;;15.50;98.00;;;;;;5054231;28;20462;-71
2022/09/05 01:40:56;;;;;;;4.17;2.20;;;15.60;98.00;;;;;;5036015;28;20461;-72
2022/09/05 01:43:35;;;;;;;2.90;1.57;;;15.60;98.00;;;;;;5054062;28;20911;-71
2022/09/05 01:46:19;;;;;;;2.57;1.90;;;15.60;98.00;;;;;;5036014;28;20467;-72
2022/09/05 01:48:54;;;;;;;1.77;1.50;;;15.70;98.00;;;;;;5053789;28;20980;-72
2022/09/05 01:51:32;;;;;;;2.60;2.00;;;15.70;98.00;;;;;;5036729;28;20467;-72
2022/09/05 01:54:16;;;;;;;2.77;2.10;;;15.60;98.00;;;;;;5053997;28;20933;-72
2022/09/05 01:56:52;;;;;;;2.20;1.70;;;15.60;98.00;;;;;;5054155;28;20449;-71
2022/09/05 01:59:27;;;;;;;2.17;1.50;;;15.50;98.00;;;;;;5053811;28;20454;-72
2022/09/05 02:02:22;;;;;;;1.70;1.60;;;15.40;98.00;;;;;;5053758;28;20526;-72
2022/09/05 02:05:11;;;;;;;2.90;1.83;;;15.30;98.00;;;;;;5053418;28;20486;-72
2022/09/05 02:07:56;;;;;;;2.67;1.80;;;15.40;98.00;;;;;;5053484;28;20461;-71
2022/09/05 02:10:51;;;;;;;2.23;1.70;;;15.40;98.00;;;;;;5053425;28;20455;-71
2022/09/05 02:13:29;;;;;;;8.73;2.33;;;15.30;98.00;;;;;;5053467;28;20905;-72
2022/09/05 02:16:04;;;;;;;2.33;1.97;;;15.30;98.00;;;;;;5053427;28;20465;-72
2022/09/05 02:18:46;;;;;;;3.60;2.83;;;15.40;98.00;;;;;;5053472;28;20469;-72
2022/09/05 02:21:23;;;;;;;2.53;1.77;;;15.60;98.00;;;;;;5053519;28;20896;-71
2022/09/05 02:24:02;;;;;;;2.27;1.53;;;15.60;98.00;;;;;;5053439;28;20489;-71
2022/09/05 02:26:34;;;;;;;2.30;1.63;;;15.70;98.00;;;;;;5034854;28;20458;-73
2022/09/05 02:29:11;;;;;;;1.90;1.67;;;15.70;98.00;;;;;;5053180;28;20449;-71
2022/09/05 02:31:46;;;;;;;1.70;1.57;;;15.50;98.00;;;;;;5035262;28;20469;-71
2022/09/05 02:34:22;;;;;;;2.00;1.70;;;15.30;98.00;;;;;;5053012;28;20536;-72
2022/09/05 02:36:55;;;;;;;2.80;2.00;;;15.20;98.00;;;;;;5053871;28;20815;-72
2022/09/05 02:39:38;;;;;;;2.13;1.60;;;15.10;98.00;;;;;;5053942;28;20453;-72
2022/09/05 02:42:15;;;;;;;2.00;1.60;;;15.10;98.00;;;;;;5036588;28;20446;-71
2022/09/05 02:44:52;;;;;;;2.83;1.80;;;15.10;98.00;;;;;;5052437;28;21037;-72
2022/09/05 02:47:23;;;;;;;2.43;1.63;;;14.90;98.00;;;;;;5035660;28;20461;-72
2022/09/05 02:50:01;;;;;;;2.23;1.80;;;14.80;98.00;;;;;;5053847;28;21153;-72
2022/09/05 02:52:32;;;;;;;2.50;1.77;;;14.80;98.00;;;;;;5054014;28;20515;-72
2022/09/05 02:55:01;;;;;;;2.50;1.80;;;14.90;98.00;;;;;;5052933;28;20485;-73
2022/09/05 02:57:36;;;;;;;2.63;1.70;;;14.90;98.00;;;;;;5052516;28;20507;-71
2022/09/05 03:00:10;;;;;;;2.60;1.83;;;14.90;98.00;;;;;;5052678;28;20467;-71
2022/09/05 03:02:53;;;;;;;2.53;2.03;;;14.80;98.00;;;;;;5052533;28;20468;-72
2022/09/05 03:05:26;;;;;;;2.00;1.70;;;14.80;98.00;;;;;;5052420;28;20495;-72
2022/09/05 03:08:11;;;;;;;3.00;1.83;;;15.00;98.00;;;;;;5052311;28;20457;-71
2022/09/05 03:11:11;;;;;;;3.03;1.67;;;15.00;98.00;;;;;;5052285;28;21045;-72
2022/09/05 03:14:09;;;;;;;1.80;1.70;;;15.00;98.00;;;;;;5052275;28;20454;-72
2022/09/05 03:17:25;;;;;;;3.37;1.97;;;14.80;98.00;;;;;;5052109;28;20468;-72
2022/09/05 03:20:39;;;;;;;2.30;1.63;;;14.70;98.00;;;;;;4971036;28;20541;-71
2022/09/05 03:23:40;;;;;;;2.10;1.73;;;14.70;98.00;;;;;;5052003;28;20464;-71
2022/09/05 03:26:46;;;;;;;2.90;1.80;;;14.60;98.00;;;;;;5045857;28;20966;-71
2022/09/05 03:29:55;;;;;;;4.00;2.10;;;14.70;98.00;;;;;;5031571;28;20460;-72
2022/09/05 03:32:57;;;;;;;1.80;1.70;;;14.60;98.00;;;;;;5051940;28;20457;-71
2022/09/05 03:36:12;;;;;;;2.43;1.80;;;14.50;98.00;;;;;;5051069;28;20471;-73
2022/09/05 03:39:16;;;;;;;2.07;1.63;;;14.50;98.00;;;;;;5051249;28;20469;-71
2022/09/05 03:42:01;;;;;;;8.80;3.80;;;14.50;98.00;;;;;;5051717;28;20458;-71
2022/09/05 03:45:00;;;;;;;2.00;1.70;;;14.50;98.00;;;;;;5051620;28;20504;-71
2022/09/05 03:47:48;;;;;;;2.43;1.67;;;14.40;98.00;;;;;;5051248;28;20464;-72
2022/09/05 03:50:34;;;;;;;2.70;1.80;;;14.50;98.00;;;;;;5051722;28;20461;-72
2022/09/05 03:53:37;;;;;;;2.17;1.50;;;14.50;98.00;;;;;;5051703;28;20460;-71
2022/09/05 03:56:17;;;;;;;2.33;1.80;;;14.50;98.00;;;;;;5051486;28;20461;-72
2022/09/05 03:59:00;;;;;;;2.43;1.60;;;14.50;98.00;;;;;;5051865;28;20808;-71
2022/09/05 04:01:34;;;;;;;3.23;2.00;;;14.50;98.00;;;;;;5051538;28;20533;-71
2022/09/05 04:04:06;;;;;;;2.90;1.60;;;14.60;98.00;;;;;;5034369;28;20497;-72
2022/09/05 04:06:36;;;;;;;2.20;1.60;;;14.60;98.00;;;;;;5051274;28;20468;-71
2022/09/05 04:09:13;;;;;;;2.43;1.60;;;14.50;98.00;;;;;;5051252;28;20465;-71
2022/09/05 04:11:46;;;;;;;3.00;1.93;;;14.40;98.00;;;;;;5034610;28;20460;-71
2022/09/05 04:14:23;;;;;;;3.43;1.70;;;14.30;98.00;;;;;;5051107;28;20456;-72
2022/09/05 04:16:54;;;;;;;2.30;1.87;;;14.30;98.00;;;;;;5033537;28;20463;-71
2022/09/05 04:19:28;;;;;;;2.77;1.67;;;14.40;98.00;;;;;;5051150;28;20461;-72
2022/09/05 04:22:09;;;;;;;1.70;1.43;;;14.40;98.00;;;;;;5050500;28;20486;-72
2022/09/05 04:24:45;;;;;;;2.07;1.50;;;14.30;98.00;;;;;;5050981;28;20481;-72
2022/09/05 04:27:31;;;;;;;2.23;1.70;;;14.30;98.00;;;;;;5051051;28;20626;-72
2022/09/05 04:30:01;;;;;;;3.00;2.03;;;14.30;98.00;;;;;;5050971;28;20459;-71
2022/09/05 04:32:40;;;;;;;2.03;1.93;;;14.30;98.00;;;;;;5051139;28;20838;-72
2022/09/05 04:35:36;;;;;;;2.30;1.70;;;14.30;98.00;;;;;;5050912;28;20978;-71
2022/09/05 04:38:13;;;;;;;2.20;1.70;;;14.20;98.00;;;;;;5034502;28;20449;-71
2022/09/05 04:40:48;;;;;;;4.30;2.13;;;14.30;98.00;;;;;;5050954;28;20469;-72
2022/09/05 04:43:25;;;;;;;1.60;1.43;;;14.50;98.00;;;;;;5050974;28;20460;-73
2022/09/05 04:46:01;;;;;;;2.10;1.63;;;14.50;98.00;;;;;;5050525;28;21019;-72
2022/09/05 04:48:35;;;;;;;1.87;1.40;;;14.40;98.00;;;;;;5052073;28;20459;-71
2022/09/05 04:51:08;;;;;;;3.23;1.90;;;14.50;98.00;;;;;;5037138;28;20460;-71
2022/09/05 04:54:14;;;;;;;2.47;1.70;;;14.50;98.00;;;;;;5037466;28;20798;-72
2022/09/05 04:56:45;;;;;;;1.97;1.50;;;14.50;98.00;;;;;;5055043;28;20468;-72
2022/09/05 04:59:21;;;;;;;4.97;2.60;;;14.40;98.00;;;;;;5037761;28;20772;-71
2022/09/05 05:01:54;;;;;;;2.07;1.70;;;14.40;98.00;;;;;;5037326;28;20465;-71
2022/09/05 05:04:24;;;;;;;2.90;1.70;;;14.30;98.00;;;;;;5054696;28;20529;-71
2022/09/05 05:07:02;;;;;;;2.97;1.60;;;14.20;98.00;;;;;;5037186;28;20948;-72
2022/09/05 05:09:35;;;;;;;2.47;1.90;;;14.30;98.00;;;;;;5038040;28;20457;-72
2022/09/05 05:12:09;;;;;;;1.77;1.57;;;14.40;98.00;;;;;;5054566;28;20453;-71
2022/09/05 05:14:43;;;;;;;3.03;1.83;;;14.50;98.00;;;;;;5054684;28;20829;-71
2022/09/05 05:17:27;;;;;;;3.40;1.70;;;14.70;98.00;;;;;;5054482;28;20469;-71
2022/09/05 05:20:02;;;;;;;2.37;1.63;;;14.90;98.00;;;;;;5054323;28;20471;-71
2022/09/05 05:22:30;;;;;;;1.87;1.43;;;14.80;98.00;;;;;;5054400;28;20464;-71
2022/09/05 05:24:58;;;;;;;3.60;1.73;;;14.90;98.00;;;;;;5054080;28;20487;-71
2022/09/05 05:27:34;;;;;;;2.20;1.70;;;15.00;98.00;;;;;;5054174;28;20464;-72
2022/09/05 05:30:06;;;;;;;1.60;1.40;;;14.80;98.00;;;;;;5036983;28;20514;-72
2022/09/05 05:32:41;;;;;;;1.90;1.73;;;14.80;98.00;;;;;;5054088;28;20461;-71
2022/09/05 05:35:11;;;;;;;2.70;1.97;;;14.90;98.00;;;;;;5054082;28;20460;-71
2022/09/05 05:37:44;;;;;;;1.70;1.50;;;15.00;98.00;;;;;;5053934;28;20454;-71
2022/09/05 05:40:20;;;;;;;3.03;1.83;;;14.90;98.00;;;;;;5053993;28;20966;-71
2022/09/05 05:42:48;;;;;;;3.33;1.83;;;14.80;98.00;;;;;;5054054;28;20487;-72
2022/09/05 05:45:18;;;;;;;2.80;1.93;;;14.90;98.00;;;;;;5053610;28;20492;-73
2022/09/05 05:47:51;;;;;;;2.60;1.63;;;14.90;98.00;;;;;;5054097;28;20815;-72
2022/09/05 05:50:33;;;;;;;1.67;1.50;;;14.90;98.00;;;;;;5053803;28;20952;-71
2022/09/05 05:53:26;;;;;;;1.73;1.67;;;14.80;98.00;;;;;;5053682;28;20841;-71
2022/09/05 05:56:19;;;;;;;4.47;2.47;;;14.80;98.00;;;;;;5053737;28;20469;-73
2022/09/05 05:59:07;;;;;;;2.77;1.87;;;15.00;98.00;;;;;;5047321;28;20461;-71
2022/09/05 06:02:04;;;;;;;2.53;1.90;;;15.10;98.00;;;;;;5052839;28;20457;-73
2022/09/05 06:05:19;;;;;;;2.70;1.93;;;15.40;98.00;;;;;;5053603;28;20492;-72
2022/09/05 06:07:55;;;;;;;3.00;1.70;;;15.50;98.00;;;;;;5053424;28;20450;-73
2022/09/05 06:11:04;;;;;;;2.17;1.77;;;15.60;98.00;;;;;;5053401;28;20460;-72
2022/09/05 06:14:22;;;;;;;2.30;1.60;;;15.80;98.00;;;;;;5053217;28;20453;-73
2022/09/05 06:17:30;;;;;;;3.20;1.73;;;16.00;98.00;;;;;;4971954;28;20457;-72
2022/09/05 06:20:40;;;;;;;3.23;1.80;;;16.10;98.00;;;;;;5036202;28;20461;-72
2022/09/05 06:23:40;;;;;;;2.47;1.90;;;16.20;98.00;;;;;;5053115;28;20468;-73
2022/09/05 06:26:48;;;;;;;2.60;2.30;;;16.30;98.00;;;;;;5049297;28;20481;-73
2022/09/05 06:29:28;;;;;;;2.53;1.83;;;16.40;98.00;;;;;;5052972;28;20454;-74
2022/09/05 06:32:07;;;;;;;3.20;2.00;;;16.40;98.00;;;;;;5052935;28;20507;-74
2022/09/05 06:34:57;;;;;;;2.27;1.77;;;16.50;98.00;;;;;;5053121;28;20461;-73
2022/09/05 06:37:36;;;;;;;2.80;1.80;;;16.40;98.00;;;;;;5052771;28;20466;-73
2022/09/05 06:40:13;;;;;;;2.90;1.93;;;16.50;98.00;;;;;;5052868;28;20469;-73
2022/09/05 06:43:02;;;;;;;4.27;2.20;;;16.50;98.00;;;;;;5053058;28;20464;-73
2022/09/05 06:45:56;;;;;;;3.97;2.10;;;16.70;98.00;;;;;;5052724;28;21007;-73
2022/09/05 06:48:28;;;;;;;3.83;2.07;;;16.70;98.00;;;;;;5039543;28;20980;-73
2022/09/05 06:51:28;;;;;;;4.37;1.90;;;16.80;98.00;;;;;;5052705;28;20454;-74
2022/09/05 06:54:18;;;;;;;2.83;1.93;;;16.90;98.00;;;;;;5036650;28;20936;-73
2022/09/05 06:57:13;;;;;;;2.10;1.80;;;17.00;98.00;;;;;;5052867;28;20468;-73
2022/09/05 07:00:04;;;;;;;4.63;2.40;;;17.00;98.00;;;;;;5052516;28;20473;-73
2022/09/05 07:02:35;;;;;;;3.40;2.37;;;17.10;98.00;;;;;;5052381;28;20458;-72
2022/09/05 07:05:20;;;;;;;3.33;1.90;;;17.30;98.00;;;;;;5052074;28;20489;-72
2022/09/05 07:07:51;;;;;;;3.70;2.13;;;17.50;98.00;;;;;;5051655;28;20471;-75
2022/09/05 07:10:27;;;;;;;3.37;2.30;;;17.50;98.00;;;;;;5060760;28;20462;-73
2022/09/05 07:13:03;;;;;;;2.87;2.07;;;17.50;98.00;;;;;;5068908;28;20452;-71
2022/09/05 07:15:48;;;;;;;2.43;1.90;;;17.50;98.00;;;;;;5049959;28;20460;-75
2022/09/05 07:18:25;;;;;;;2.27;1.83;;;17.70;98.00;;;;;;5054957;28;20453;-73
2022/09/05 07:20:56;;;;;;;2.43;2.03;;;17.90;98.00;;;;;;5064910;28;20510;-73
2022/09/05 07:23:39;;;;;;;2.77;1.90;;;18.00;98.00;;;;;;5061819;28;20547;-75
2022/09/05 07:26:09;;;;;;;2.73;2.13;;;18.10;98.00;;;;;;5066456;28;20484;-75
2022/09/05 07:28:42;;;;;;;2.67;1.87;;;18.10;98.00;;;;;;5050284;28;20445;-75
2022/09/05 07:31:16;;;;;;;3.70;1.80;;;18.30;98.00;;;;;;5051124;28;20454;-75
2022/09/05 07:33:46;;;;;;;2.67;1.70;;;18.30;98.00;;;;;;5042132;28;20903;-67
2022/09/05 07:36:19;;;;;;;2.73;1.90;;;18.30;98.00;;;;;;5061019;28;21011;-68
2022/09/05 07:38:49;;;;;;;2.37;1.83;;;18.80;98.00;;;;;;5060297;28;20460;-68
2022/09/05 07:41:22;;;;;;;2.97;2.00;;;19.40;98.00;;;;;;5067651;28;20515;-66
2022/09/05 07:43:55;;;;;;;6.13;2.33;;;19.80;98.00;;;;;;5067406;28;20479;-65
2022/09/05 07:46:26;;;;;;;2.33;1.90;;;20.10;98.00;;;;;;5060182;28;20523;-65
2022/09/05 07:48:58;;;;;;;3.37;1.90;;;20.20;98.00;;;;;;5053913;28;20472;-65
2022/09/05 07:51:27;;;;;;;2.33;1.87;;;20.30;98.00;;;;;;5053049;28;20810;-65
2022/09/05 07:53:58;;;;;;;2.20;1.80;;;20.20;98.00;;;;;;5058758;28;20948;-76
2022/09/05 07:56:43;;;;;;;2.60;2.07;;;20.40;98.00;;;;;;5067952;28;20464;-74
2022/09/05 07:59:13;;;;;;;3.83;1.90;;;20.40;98.00;;;;;;5064554;28;20468;-74
2022/09/05 08:01:49;;;;;;;3.10;2.30;;;20.40;98.00;;;;;;5051389;28;20462;-75
2022/09/05 08:04:25;;;;;;;3.27;2.00;;;20.50;98.00;;;;;;5065102;28;20540;-74
2022/09/05 08:06:54;;;;;;;4.03;2.13;;;20.50;98.00;;;;;;5068459;28;20489;-76
2022/09/05 08:09:29;;;;;;;2.67;1.80;;;20.70;98.00;;;;;;5062323;28;20567;-74
2022/09/05 08:12:00;;;;;;;3.40;2.10;;;20.70;98.00;;;;;;5049550;28;20453;-75
2022/09/05 08:14:43;;;;;;;1.83;1.77;;;20.80;98.00;;;;;;5067103;28;20457;-73
2022/09/05 08:17:18;;;;;;;3.60;2.10;;;20.80;98.00;;;;;;5058164;28;20477;-75
2022/09/05 08:19:55;;;;;;;4.80;2.20;;;21.00;98.00;;;;;;5059479;28;20464;-74
2022/09/05 08:22:28;;;;;;;2.23;2.07;;;21.10;98.00;;;;;;5048150;28;20457;-75
2022/09/05 08:25:06;;;;;;;5.00;2.17;;;21.20;98.00;;;;;;5050476;28;20458;-75
2022/09/05 08:27:53;;;;;;;2.47;2.10;;;21.30;98.00;;;;;;5059008;28;20453;-73
2022/09/05 08:30:20;;;;;;;3.27;2.47;;;21.40;98.00;;;;;;5057365;28;20453;-75
2022/09/05 08:32:57;;;;;;;2.90;2.23;;;21.50;98.00;;;;;;5062864;28;20478;-74
2022/09/05 08:35:27;;;;;;;4.57;2.70;;;21.60;98.00;;;;;;5050588;28;20519;-75
2022/09/05 08:37:56;;;;;;;3.10;2.10;;;21.80;98.00;;;;;;5049633;28;20458;-75
2022/09/05 08:40:28;;;;;;;3.73;2.30;;;22.00;98.00;;;;;;5049171;28;20468;-76
2022/09/05 08:43:02;;;;;;;3.67;2.30;;;22.20;98.00;;;;;;5050773;28;20462;-75
2022/09/05 08:45:38;;;;;;;3.93;2.50;;;22.40;98.00;;;;;;5067185;28;20487;-77
2022/09/05 08:48:18;;;;;;;3.07;2.10;;;22.50;98.00;;;;;;5055179;28;20464;-75
2022/09/05 08:51:23;;;;;;;8.07;2.37;;;22.80;98.00;;;;;;5041997;28;20467;-74
2022/09/05 08:54:10;;;;;;;2.60;1.97;;;23.00;98.00;;;;;;4969049;28;20544;-74
2022/09/05 08:56:50;;;;;;;2.60;1.93;;;23.30;98.00;;;;;;5048665;28;20461;-75
2022/09/05 08:59:33;;;;;;;2.77;2.10;;;23.40;98.00;;;;;;5050772;28;20461;-75
2022/09/05 09:02:33;;;;;;;3.17;2.10;;;23.60;98.00;;;;;;5064322;28;20472;-74
2022/09/05 09:05:10;;;;;;;2.50;2.23;;;23.90;98.00;;;;;;5013879;28;20856;-75
2022/09/05 09:07:42;;;;;;;3.30;2.23;;;24.10;98.00;;;;;;5049204;28;20466;-74
2022/09/05 09:10:25;;;;;;;3.50;2.00;;;24.40;98.00;;;;;;5049408;28;20484;-74
2022/09/05 09:13:12;;;;;;;3.00;2.13;;;24.60;98.00;;;;;;5067645;28;20833;-74
2022/09/05 09:15:49;;;;;;;2.30;1.70;;;24.80;98.00;;;;;;5058472;28;20453;-75
2022/09/05 09:18:18;;;;;;;2.53;2.13;;;25.00;98.00;;;;;;5052190;28;20453;-73
2022/09/05 09:20:52;;;;;;;4.03;2.20;;;25.20;98.00;;;;;;5047547;28;20486;-71
2022/09/05 09:23:44;;;;;;;3.00;2.20;;;25.50;98.00;;;;;;5067066;28;20547;-69
2022/09/05 09:26:15;;;;;;;2.80;2.20;;;25.70;97.10;;;;;;5041569;28;20481;-69
2022/09/05 09:28:56;;;;;;;2.30;1.77;;;25.90;96.80;;;;;;5040747;28;20466;-71
2022/09/05 09:31:36;;;;;;;3.00;2.10;;;26.10;97.10;;;;;;5058310;28;20466;-71
2022/09/05 09:34:18;;;;;;;2.30;2.03;;;26.30;94.90;;;;;;5050790;28;20458;-70
2022/09/05 09:37:09;;;;;;;3.30;2.13;;;26.50;94.70;;;;;;5067056;28;20468;-70
2022/09/05 09:39:59;;;;;;;2.53;2.20;;;26.70;95.40;;;;;;5061750;28;20514;-71
2022/09/05 09:42:35;;;;;;;2.67;2.20;;;26.90;93.60;;;;;;5044629;28;20585;-71
2022/09/05 09:45:34;;;;;;;3.63;2.23;;;27.10;92.80;;;;;;5053965;28;20458;-67
2022/09/05 09:48:37;;;;;;;4.20;2.37;;;27.30;91.10;;;;;;5031941;28;20461;-67
2022/09/05 09:51:34;;;;;;;2.87;2.00;;;27.50;90.90;;;;;;5050783;28;20458;-67
2022/09/05 09:54:27;;;;;;;3.10;2.20;;;27.60;89.60;;;;;;5069302;28;20464;-67
2022/09/05 09:57:21;;;;;;;2.20;1.80;;;27.80;88.70;;;;;;5062296;28;20816;-67
2022/09/05 10:00:05;;;;;;;3.77;2.50;;;27.90;87.50;;;;;;5055917;28;20485;-67
2022/09/05 10:03:42;;;;;;;2.40;2.10;;;28.10;88.90;;;;;;5065256;28;20452;-66
2022/09/05 10:06:50;;;;;;;2.80;2.20;;;28.30;87.60;;;;;;5045652;28;20492;-70
2022/09/05 10:09:32;;;;;;;3.80;2.20;;;28.50;88.40;;;;;;5028539;28;20453;-70
2022/09/05 10:12:27;;;;;;;3.40;2.37;;;28.60;87.90;;;;;;5053909;28;20456;-70
2022/09/05 10:15:01;;;;;;;3.00;1.97;;;28.80;87.10;;;;;;5057283;28;20468;-71
2022/09/05 10:17:53;;;;;;;2.80;2.10;;;29.00;86.90;;;;;;5065078;28;20469;-70
2022/09/05 10:20:36;;;;;;;2.67;2.10;;;29.20;87.30;;;;;;5068912;28;20551;-65
2022/09/05 10:23:37;;;;;;;2.87;2.10;;;29.40;85.50;;;;;;5061439;28;20458;-66
2022/09/05 10:26:42;;;;;;;2.17;2.00;;;29.50;85.00;;;;;;5064405;28;20547;-66
2022/09/05 10:29:22;;;;;;;3.17;2.27;;;29.70;84.60;;;;;;5061987;28;20454;-65
2022/09/05 10:31:56;;;;;;;3.40;2.10;;;29.80;83.80;;;;;;5054757;28;20473;-67
2022/09/05 10:34:25;;;;;;;3.07;2.40;;;29.80;83.60;;;;;;5067691;28;20460;-65
2022/09/05 10:37:01;;;;;;;2.60;2.00;;;29.90;84.10;;;;;;5051619;28;20994;-65
2022/09/05 10:39:30;;;;;;;3.37;2.30;;;30.10;83.20;;;;;;5051287;28;20464;-67
2022/09/05 10:42:05;;;;;;;2.60;2.03;;;30.00;79.30;;;;;;5063141;28;20830;-66
2022/09/05 10:44:39;;;;;;;2.70;2.23;;;29.90;79.40;;;;;;5037433;28;20459;-66
2022/09/05 10:47:31;;;;;;;2.73;1.90;;;30.00;78.90;;;;;;5064963;28;20552;-66
2022/09/05 10:50:08;;;;;;;2.33;2.03;;;30.00;78.80;;;;;;5033376;28;20465;-66
2022/09/05 10:52:40;;;;;;;2.60;2.00;;;30.20;78.60;;;;;;5059203;28;20461;-66
2022/09/05 10:55:17;;;;;;;2.87;2.17;;;30.40;77.00;;;;;;5067402;28;20493;-67
2022/09/05 10:57:59;;;;;;;3.90;2.00;;;30.70;78.20;;;;;;5068860;28;20563;-67
2022/09/05 11:00:52;;;;;;;2.57;1.87;;;31.10;75.30;;;;;;5042060;28;20518;-67
2022/09/05 11:03:28;;;;;;;3.00;2.23;;;31.10;75.10;;;;;;5043409;28;20456;-79
2022/09/05 11:05:58;;;;;;;2.30;1.97;;;31.20;73.00;;;;;;5058317;28;20500;-79
2022/09/05 11:08:35;;;;;;;3.37;2.07;;;31.30;73.10;;;;;;5051181;28;20461;-79
2022/09/05 11:11:14;;;;;;;4.00;2.40;;;31.50;71.50;;;;;;5059247;28;20457;-79
2022/09/05 11:13:46;;;;;;;2.63;1.87;;;31.60;73.40;;;;;;5016949;28;20544;-79
2022/09/05 11:16:27;;;;;;;2.27;1.90;;;31.80;73.40;;;;;;5067368;28;20464;-79
2022/09/05 11:18:59;;;;;;;2.40;2.10;;;31.90;72.30;;;;;;5052551;28;20467;-79
2022/09/05 11:21:42;;;;;;;2.10;1.90;;;32.00;73.50;;;;;;5068969;28;20469;-79
2022/09/05 11:24:23;;;;;;;2.93;2.30;;;32.20;73.30;;;;;;5058834;28;20464;-79
2022/09/05 11:26:58;;;;;;;3.03;2.20;;;32.10;73.10;;;;;;5057893;28;21003;-80
2022/09/05 11:29:35;;;;;;;2.70;1.90;;;32.30;72.60;;;;;;5058628;28;20458;-79
2022/09/05 11:32:32;;;;;;;2.57;2.20;;;32.50;71.40;;;;;;5058787;28;20460;-79
2022/09/05 11:35:27;;;;;;;2.30;2.03;;;32.60;69.60;;;;;;5050988;28;20472;-79
2022/09/05 11:38:26;;;;;;;2.00;1.90;;;32.70;71.90;;;;;;5005587;28;20457;-81
2022/09/05 11:41:28;;;;;;;1.97;1.70;;;33.00;69.60;;;;;;5052541;28;20457;-80
2022/09/05 11:44:22;;;;;;;2.90;2.13;;;32.70;67.70;;;;;;5008442;28;20473;-81
2022/09/05 11:47:15;;;;;;;4.50;2.03;;;32.50;68.40;;;;;;5052336;28;20492;-81
2022/09/05 11:50:06;;;;;;;2.13;1.90;;;32.60;69.00;;;;;;5051773;28;20465;-81
2022/09/05 11:53:01;;;;;;;4.30;2.43;;;32.70;69.20;;;;;;5052300;28;20450;-81
2022/09/05 11:55:59;;;;;;;3.27;2.13;;;33.00;69.70;;;;;;5034354;28;20464;-81
2022/09/05 11:59:17;;;;;;;2.33;2.00;;;32.90;69.10;;;;;;5051489;28;20532;-81
2022/09/05 12:01:59;;;;;;;2.90;2.03;;;33.00;68.90;;;;;;5004221;28;20458;-81
2022/09/05 12:04:49;;;;;;;2.47;2.00;;;33.00;62.80;;;;;;5052444;28;20457;-80
2022/09/05 12:07:59;;;;;;;2.33;1.83;;;32.70;63.70;;;;;;5048871;28;20485;-80
2022/09/05 12:10:36;;;;;;;2.10;1.90;;;32.30;64.00;;;;;;5052500;28;20449;-79
2022/09/05 12:13:35;;;;;;;1.80;1.80;;;32.20;64.20;;;;;;5051813;28;20468;-80
2022/09/05 12:16:18;;;;;;;2.60;2.10;;;32.30;66.70;;;;;;5045344;28;20948;-80
2022/09/05 12:19:03;;;;;;;3.90;2.20;;;32.70;66.00;;;;;;5052070;28;20458;-78
2022/09/05 12:21:35;;;;;;;3.20;1.93;;;33.20;66.60;;;;;;5035654;28;20512;-79
2022/09/05 12:24:13;;;;;;;1.83;1.67;;;33.40;64.50;;;;;;5051816;28;20460;-78
2022/09/05 12:26:48;;;;;;;2.63;2.00;;;33.50;63.30;;;;;;5051523;28;20490;-78
2022/09/05 12:29:21;;;;;;;2.67;1.90;;;33.70;62.00;;;;;;5051557;28;20458;-79
2022/09/05 12:31:51;;;;;;;2.53;1.80;;;33.70;61.70;;;;;;5051485;28;20519;-79
2022/09/05 12:34:50;;;;;;;2.03;1.80;;;33.60;59.60;;;;;;5051654;28;20460;-80
2022/09/05 12:37:29;;;;;;;1.70;1.53;;;33.40;60.20;;;;;;5051421;28;20453;-79
2022/09/05 12:40:08;;;;;;;6.17;2.00;;;33.50;61.90;;;;;;5037180;28;20481;-79
2022/09/05 12:42:43;;;;;;;3.03;2.00;;;33.50;60.60;;;;;;5031989;28;20454;-79
2022/09/05 12:45:19;;;;;;;2.23;2.03;;;33.60;59.90;;;;;;5031514;28;20627;-80
2022/09/05 12:47:57;;;;;;;2.67;1.87;;;33.80;60.80;;;;;;5031628;28;20494;-79
2022/09/05 12:50:33;;;;;;;1.90;1.70;;;33.90;62.60;;;;;;5031810;28;20646;-79
2022/09/05 12:53:06;;;;;;;3.23;2.17;;;34.10;61.00;;;;;;5031775;28;20458;-79
2022/09/05 12:55:39;;;;;;;2.70;2.00;;;34.20;61.10;;;;;;5031418;28;20547;-80
2022/09/05 12:58:19;;;;;;;2.60;2.00;;;34.30;60.70;;;;;;5031211;28;20522;-80
2022/09/05 13:00:49;;;;;;;2.07;1.77;;;34.70;59.20;;;;;;5030963;28;20458;-80
2022/09/05 13:03:21;;;;;;;3.50;2.17;;;34.90;59.40;;;;;;5030867;28;20494;-67
2022/09/05 13:05:57;;;;;;;2.47;1.70;;;35.00;58.20;;;;;;5032332;28;20467;-79
2022/09/05 13:08:42;;;;;;;1.90;1.80;;;34.90;58.00;;;;;;5031159;28;20489;-78
2022/09/05 13:11:12;;;;;;;4.27;2.03;;;34.80;57.60;;;;;;5018283;28;20468;-74
2022/09/05 13:13:47;;;;;;;2.20;1.90;;;34.60;58.50;;;;;;5035416;28;20459;-81
2022/09/05 13:16:21;;;;;;;2.27;1.90;;;34.40;60.20;;;;;;5035353;28;20458;-79
2022/09/05 13:18:52;;;;;;;2.60;1.93;;;34.20;59.20;;;;;;5035092;28;20972;-76
2022/09/05 13:21:25;;;;;;;3.60;2.20;;;33.80;59.50;;;;;;5035013;28;20461;-75
2022/09/05 13:24:05;;;;;;;1.80;1.63;;;33.10;61.20;;;;;;5033992;28;20551;-78
2022/09/05 13:26:36;;;;;;;2.70;1.90;;;32.60;62.50;;;;;;5044225;28;20546;-80
2022/09/05 13:29:13;;;;;;;3.13;2.13;;;32.10;63.10;;;;;;5054840;28;20540;-80
2022/09/05 13:32:07;;;;;;;2.20;1.80;;;31.80;65.80;;;;;;5054578;28;20461;-79
2022/09/05 13:34:41;;;;;;;1.83;1.73;;;32.10;64.80;;;;;;5050646;28;20964;-82
2022/09/05 13:37:17;;;;;;;2.53;2.07;;;32.20;62.80;;;;;;5054897;28;20461;-76
2022/09/05 13:39:51;;;;;;;2.17;1.80;;;32.10;63.10;;;;;;5054402;28;20464;-77
2022/09/05 13:42:22;;;;;;;2.50;1.93;;;32.00;64.70;;;;;;5054341;28;20575;-78
2022/09/05 13:44:54;;;;;;;2.43;2.00;;;31.90;63.40;;;;;;5048052;28;20454;-77
2022/09/05 13:48:03;;;;;;;3.07;2.00;;;31.80;64.20;;;;;;5033746;28;20521;-77
2022/09/05 13:50:35;;;;;;;3.13;2.13;;;32.00;65.50;;;;;;4953371;29;20458;-76
2022/09/05 13:53:11;;;;;;;2.83;2.10;;;32.20;64.50;;;;;;5024920;28;20463;-77
2022/09/05 13:55:43;;;;;;;2.30;1.93;;;32.30;63.50;;;;;;5034479;28;20454;-75
2022/09/05 13:58:19;;;;;;;1.70;1.60;;;32.00;65.30;;;;;;5034154;28;20470;-74
2022/09/05 14:01:31;;;;;;;2.30;1.90;;;31.90;67.50;;;;;;5034362;28;20458;-73
2022/09/05 14:04:27;;;;;;;2.70;1.90;;;32.00;68.20;;;;;;5020935;28;20466;-74